Time;durP1;ratioP1;P1;durP2;ratioP2;P2;SDS_P1;SDS_P2;PMS_P1;PMS_P2;Temp;Humidity;BMP_temperature;BMP_pressure;BME280_temperature;BME280_humidity;BME280_pressure;Samples;Min_cycle;Max_cycle;Signal;HPM_P1;HPM_P2
2022/12/02 00:00:53;;;;;;;18.15;11.50;;;;;;;;;;5076338;28;20052;-70
2022/12/02 00:03:20;;;;;;;21.05;14.70;;;;;;;;;;5094521;28;20479;-70
2022/12/02 00:05:46;;;;;;;13.27;11.07;;;;;;;;;;5093939;28;20059;-70
2022/12/02 00:08:22;;;;;;;24.23;19.38;;;;;;;;;;5093869;28;20028;-70
2022/12/02 00:10:50;;;;;;;12.55;10.82;;;;;;;;;;5094493;28;20389;-70
2022/12/02 00:13:24;;;;;;;14.52;12.52;;;;;;;;;;5094469;28;20020;-70
2022/12/02 00:15:51;;;;;;;15.10;13.50;;;;;;;;;;5094098;28;20482;-70
2022/12/02 00:18:17;;;;;;;10.52;9.43;;;;;;;;;;5076366;28;20081;-70
2022/12/02 00:20:43;;;;;;;12.02;9.50;;;;;;;;;;5094432;28;20032;-70
2022/12/02 00:23:09;;;;;;;13.57;9.25;;;;;;;;;;5094398;28;20031;-70
2022/12/02 00:25:34;;;;;;;12.98;9.35;;;;;;;;;;5076021;28;20067;-70
2022/12/02 00:28:00;;;;;;;10.02;7.70;;;;;;;;;;5094177;28;20024;-70
2022/12/02 00:30:26;;;;;;;12.25;8.82;;;;;;;;;;5093684;28;20449;-70
2022/12/02 00:32:51;;;;;;;10.43;8.25;;;;;;;;;;5093556;28;20112;-70
2022/12/02 00:35:17;;;;;;;13.65;9.07;;;;;;;;;;5094308;28;20277;-70
2022/12/02 00:37:42;;;;;;;12.48;9.25;;;;;;;;;;5093915;28;20042;-70
2022/12/02 00:40:08;;;;;;;17.73;10.75;;;;;;;;;;5075712;28;20428;-70
2022/12/02 00:42:33;;;;;;;17.42;12.63;;;;;;;;;;5075605;28;20031;-70
2022/12/02 00:47:43;;;;;;;14.10;11.07;;;;;;;;;;5075662;28;20074;-70
2022/12/02 00:50:09;;;;;;;11.68;9.18;;;;;;;;;;5075953;28;20055;-70
2022/12/02 00:52:35;;;;;;;10.65;9.63;;;;;;;;;;5075646;28;20451;-70
2022/12/02 00:55:00;;;;;;;11.35;8.93;;;;;;;;;;5075856;28;20016;-70
2022/12/02 00:57:26;;;;;;;11.75;9.85;;;;;;;;;;5093657;28;20020;-70
2022/12/02 00:59:52;;;;;;;14.15;10.32;;;;;;;;;;5093561;28;20043;-69
2022/12/02 01:02:18;;;;;;;13.95;9.65;;;;;;;;;;5075698;28;20416;-70
2022/12/02 01:04:43;;;;;;;15.75;10.98;;;;;;;;;;5093795;28;20478;-68
2022/12/02 01:07:09;;;;;;;14.32;10.55;;;;;;;;;;5059056;28;20028;-66
2022/12/02 01:09:34;;;;;;;15.82;10.65;;;;;;;;;;5093972;28;20022;-68
2022/12/02 01:12:00;;;;;;;13.98;10.75;;;;;;;;;;5075555;28;20020;-69
2022/12/02 01:14:25;;;;;;;16.13;12.13;;;;;;;;;;5093777;28;20016;-69
2022/12/02 01:16:51;;;;;;;15.35;11.90;;;;;;;;;;5075753;28;20036;-69
2022/12/02 01:19:16;;;;;;;14.02;10.93;;;;;;;;;;5097439;28;20020;-69
2022/12/02 01:21:41;;;;;;;13.18;10.38;;;;;;;;;;5097877;28;20020;-69
2022/12/02 01:24:07;;;;;;;11.85;10.13;;;;;;;;;;5097754;28;20350;-69
2022/12/02 01:26:32;;;;;;;12.13;10.25;;;;;;;;;;5079134;28;20036;-70
2022/12/02 01:28:57;;;;;;;11.80;10.18;;;;;;;;;;5097278;28;20034;-70
2022/12/02 01:31:24;;;;;;;12.75;9.40;;;;;;;;;;5097439;28;20039;-69
2022/12/02 01:33:50;;;;;;;11.80;9.57;;;;;;;;;;5097058;28;20012;-69
2022/12/02 01:36:15;;;;;;;13.50;11.73;;;;;;;;;;5097147;28;20477;-70
2022/12/02 01:38:41;;;;;;;13.52;11.15;;;;;;;;;;5079768;28;20024;-70
2022/12/02 01:41:08;;;;;;;15.40;11.70;;;;;;;;;;5097504;28;20035;-70
2022/12/02 01:43:34;;;;;;;13.60;11.18;;;;;;;;;;5079030;28;20047;-70
2022/12/02 01:46:00;;;;;;;12.77;10.57;;;;;;;;;;5097217;28;20474;-66
2022/12/02 01:48:25;;;;;;;12.73;10.80;;;;;;;;;;5079269;28;20031;-66
2022/12/02 01:50:50;;;;;;;13.85;10.52;;;;;;;;;;5097400;28;20032;-67
2022/12/02 01:53:16;;;;;;;14.60;11.60;;;;;;;;;;5097114;28;20032;-67
2022/12/02 01:55:41;;;;;;;14.43;10.63;;;;;;;;;;5078913;28;20020;-70
2022/12/02 01:58:08;;;;;;;12.82;10.30;;;;;;;;;;5078974;28;20008;-69
2022/12/02 02:00:34;;;;;;;12.73;10.88;;;;;;;;;;5078406;28;20055;-69
2022/12/02 02:02:59;;;;;;;12.70;9.93;;;;;;;;;;5078605;28;20032;-69
2022/12/02 02:05:28;;;;;;;13.05;10.93;;;;;;;;;;5078851;28;20506;-70
2022/12/02 02:07:56;;;;;;;13.00;10.75;;;;;;;;;;5078342;28;20024;-70
2022/12/02 02:10:23;;;;;;;12.27;9.95;;;;;;;;;;5078483;28;20058;-70
2022/12/02 02:12:50;;;;;;;12.40;10.23;;;;;;;;;;5095605;28;20012;-70
2022/12/02 02:15:15;;;;;;;13.23;10.45;;;;;;;;;;5062147;28;20020;-70
2022/12/02 02:17:42;;;;;;;13.02;10.00;;;;;;;;;;5078413;28;20077;-70
2022/12/02 02:20:09;;;;;;;12.98;10.20;;;;;;;;;;5096632;28;20042;-70
2022/12/02 02:22:44;;;;;;;12.73;10.25;;;;;;;;;;5078438;28;20111;-68
2022/12/02 02:25:12;;;;;;;12.93;10.73;;;;;;;;;;5078283;28;20493;-68
2022/12/02 02:27:37;;;;;;;12.65;9.52;;;;;;;;;;5078210;28;20020;-67
2022/12/02 02:30:04;;;;;;;12.82;10.43;;;;;;;;;;5095797;28;20043;-67
2022/12/02 02:32:29;;;;;;;11.98;9.68;;;;;;;;;;5096366;28;20516;-67
2022/12/02 02:34:54;;;;;;;12.93;9.50;;;;;;;;;;5096594;28;20154;-67
2022/12/02 02:37:20;;;;;;;13.90;10.45;;;;;;;;;;5087844;22;20071;-69
2022/12/02 02:39:46;;;;;;;14.35;10.32;;;;;;;;;;5096052;28;20063;-69
2022/12/02 02:42:12;;;;;;;13.98;10.93;;;;;;;;;;5078195;28;20023;-69
2022/12/02 02:44:38;;;;;;;14.52;11.32;;;;;;;;;;5078125;28;20028;-69
2022/12/02 02:47:04;;;;;;;12.70;10.05;;;;;;;;;;5078025;28;20043;-69
2022/12/02 02:49:29;;;;;;;16.45;10.68;;;;;;;;;;5077819;28;20031;-69
2022/12/02 02:51:55;;;;;;;15.43;11.25;;;;;;;;;;5095936;28;20035;-69
2022/12/02 02:54:21;;;;;;;15.45;11.23;;;;;;;;;;5077680;28;20031;-69
2022/12/02 02:56:46;;;;;;;12.80;10.23;;;;;;;;;;5077930;28;20016;-69
2022/12/02 02:59:13;;;;;;;13.68;10.45;;;;;;;;;;5060966;28;20031;-69
2022/12/02 03:01:39;;;;;;;11.35;8.80;;;;;;;;;;5077824;28;20020;-69
2022/12/02 03:04:09;;;;;;;14.77;10.82;;;;;;;;;;5077800;28;20078;-69
2022/12/02 03:06:36;;;;;;;17.73;12.43;;;;;;;;;;5077214;28;20496;-69
2022/12/02 03:09:03;;;;;;;16.05;11.15;;;;;;;;;;5077253;28;20561;-69
2022/12/02 03:11:29;;;;;;;11.85;8.88;;;;;;;;;;5095523;28;20030;-69
2022/12/02 03:13:55;;;;;;;12.20;8.98;;;;;;;;;;5095872;28;20047;-69
2022/12/02 03:16:21;;;;;;;37.72;24.65;;;;;;;;;;5095633;28;20499;-69
2022/12/02 03:18:48;;;;;;;25.13;17.98;;;;;;;;;;5095597;28;20024;-69
2022/12/02 03:21:15;;;;;;;22.40;17.92;;;;;;;;;;5095354;28;20012;-69
2022/12/02 03:23:41;;;;;;;13.32;10.20;;;;;;;;;;5095578;28;20063;-68
2022/12/02 03:26:07;;;;;;;20.98;15.45;;;;;;;;;;5077145;28;20066;-69
2022/12/02 03:28:32;;;;;;;29.10;21.10;;;;;;;;;;5077748;28;20032;-70
2022/12/02 03:30:58;;;;;;;10.45;8.43;;;;;;;;;;5095066;28;20027;-70
2022/12/02 03:33:23;;;;;;;12.15;9.18;;;;;;;;;;5095262;28;20036;-70
2022/12/02 03:35:49;;;;;;;25.60;18.38;;;;;;;;;;5094981;28;20053;-71
2022/12/02 03:38:15;;;;;;;54.80;44.95;;;;;;;;;;5095167;28;20040;-70
2022/12/02 03:40:40;;;;;;;34.33;28.88;;;;;;;;;;5076908;28;20024;-70
2022/12/02 03:43:06;;;;;;;20.45;18.30;;;;;;;;;;5095258;28;20488;-70
2022/12/02 03:45:32;;;;;;;17.50;15.77;;;;;;;;;;5076842;28;20065;-69
2022/12/02 03:47:58;;;;;;;10.75;8.82;;;;;;;;;;5095265;28;20354;-68
2022/12/02 03:50:23;;;;;;;10.40;9.27;;;;;;;;;;5095146;28;20081;-68
2022/12/02 03:52:49;;;;;;;9.75;8.27;;;;;;;;;;5094956;28;20036;-70
2022/12/02 03:55:14;;;;;;;9.77;7.38;;;;;;;;;;5094802;28;20020;-69
2022/12/02 03:57:41;;;;;;;7.05;6.38;;;;;;;;;;5077005;28;20032;-70
2022/12/02 04:00:06;;;;;;;11.10;8.43;;;;;;;;;;5094867;28;20020;-70
2022/12/02 04:02:37;;;;;;;8.32;7.18;;;;;;;;;;5094580;28;20039;-69
2022/12/02 04:05:03;;;;;;;13.27;8.48;;;;;;;;;;5076849;28;20031;-68
2022/12/02 04:07:28;;;;;;;11.82;8.52;;;;;;;;;;5094861;28;20073;-68
2022/12/02 04:09:54;;;;;;;61.53;36.90;;;;;;;;;;5094649;28;20110;-68
2022/12/02 04:12:19;;;;;;;25.67;22.75;;;;;;;;;;5094597;28;20052;-70
2022/12/02 04:14:44;;;;;;;10.15;8.90;;;;;;;;;;5094527;28;20035;-70
2022/12/02 04:17:10;;;;;;;12.68;10.75;;;;;;;;;;5094451;28;20095;-70
2022/12/02 04:19:36;;;;;;;7.30;6.60;;;;;;;;;;5094451;28;20416;-70
2022/12/02 04:22:02;;;;;;;7.65;6.88;;;;;;;;;;5094394;28;20020;-70
2022/12/02 04:24:27;;;;;;;7.88;6.82;;;;;;;;;;5094496;28;20067;-70
2022/12/02 04:26:55;;;;;;;8.68;7.28;;;;;;;;;;5094433;28;20020;-70
2022/12/02 04:29:21;;;;;;;11.10;9.55;;;;;;;;;;5094550;28;20109;-70
2022/12/02 04:31:46;;;;;;;7.65;6.93;;;;;;;;;;5094320;28;20070;-70
2022/12/02 04:34:11;;;;;;;7.95;6.50;;;;;;;;;;5094066;28;20036;-70
2022/12/02 04:36:37;;;;;;;7.72;6.15;;;;;;;;;;5093778;28;20494;-71
2022/12/02 04:39:02;;;;;;;7.35;6.22;;;;;;;;;;5094010;28;20063;-70
2022/12/02 04:41:28;;;;;;;6.80;5.90;;;;;;;;;;5076265;28;20028;-69
2022/12/02 04:43:53;;;;;;;7.80;6.78;;;;;;;;;;5075982;28;20466;-70
2022/12/02 04:46:19;;;;;;;6.22;5.63;;;;;;;;;;5094120;28;20466;-70
2022/12/02 04:48:44;;;;;;;7.65;5.90;;;;;;;;;;5094529;28;20423;-70
2022/12/02 04:51:10;;;;;;;11.30;10.20;;;;;;;;;;5094239;28;20020;-70
2022/12/02 04:53:35;;;;;;;6.65;6.05;;;;;;;;;;5093638;28;20516;-70
2022/12/02 04:56:01;;;;;;;7.30;6.55;;;;;;;;;;5093700;28;20009;-69
2022/12/02 04:58:26;;;;;;;6.97;6.28;;;;;;;;;;5094056;28;20154;-69
2022/12/02 05:00:52;;;;;;;7.30;6.38;;;;;;;;;;5093661;28;20393;-69
2022/12/02 05:03:17;;;;;;;6.68;6.05;;;;;;;;;;5094207;28;20111;-69
2022/12/02 05:05:43;;;;;;;7.55;6.95;;;;;;;;;;5094182;28;20108;-69
2022/12/02 05:08:08;;;;;;;6.20;5.60;;;;;;;;;;5094040;28;20039;-70
2022/12/02 05:10:33;;;;;;;7.50;6.72;;;;;;;;;;5094076;28;20016;-70
2022/12/02 05:12:59;;;;;;;7.50;6.75;;;;;;;;;;5093955;28;20485;-70
2022/12/02 05:15:24;;;;;;;8.73;7.82;;;;;;;;;;5093864;28;20087;-70
2022/12/02 05:17:50;;;;;;;9.88;8.70;;;;;;;;;;5093715;28;20035;-70
2022/12/02 05:20:16;;;;;;;13.02;9.25;;;;;;;;;;5094119;28;20060;-70
2022/12/02 05:22:42;;;;;;;27.73;19.65;;;;;;;;;;5094097;28;20066;-70
2022/12/02 05:25:09;;;;;;;16.02;12.57;;;;;;;;;;5075614;28;20032;-70
2022/12/02 05:27:34;;;;;;;13.15;10.38;;;;;;;;;;5093970;28;20432;-69
2022/12/02 05:29:59;;;;;;;13.10;9.43;;;;;;;;;;5093894;28;20020;-67
2022/12/02 05:32:26;;;;;;;11.27;9.05;;;;;;;;;;5074605;28;20032;-67
2022/12/02 05:34:51;;;;;;;9.30;7.97;;;;;;;;;;5093113;28;20556;-67
2022/12/02 05:37:17;;;;;;;12.50;9.55;;;;;;;;;;5074354;28;20036;-67
2022/12/02 05:39:43;;;;;;;9.77;8.32;;;;;;;;;;5073424;28;20023;-69
2022/12/02 05:42:10;;;;;;;10.68;8.50;;;;;;;;;;5083410;28;20027;-68
2022/12/02 05:44:37;;;;;;;11.88;9.63;;;;;;;;;;5083286;28;20023;-68
2022/12/02 05:47:09;;;;;;;10.68;8.30;;;;;;;;;;5090135;28;20037;-68
2022/12/02 05:49:35;;;;;;;11.35;8.38;;;;;;;;;;5092960;28;20047;-67
2022/12/02 05:52:02;;;;;;;10.40;8.95;;;;;;;;;;5074638;28;20016;-68
2022/12/02 05:54:27;;;;;;;12.20;9.15;;;;;;;;;;5060410;28;20391;-69
2022/12/02 05:56:54;;;;;;;9.48;7.80;;;;;;;;;;5071697;28;20020;-67
2022/12/02 05:59:20;;;;;;;11.90;10.60;;;;;;;;;;5071651;28;20125;-67
2022/12/02 06:01:50;;;;;;;14.68;10.35;;;;;;;;;;5054420;28;20479;-68
2022/12/02 06:04:23;;;;;;;14.30;10.40;;;;;;;;;;5072865;28;20471;-68
2022/12/02 06:06:50;;;;;;;12.23;9.93;;;;;;;;;;5076217;28;20565;-68
2022/12/02 06:09:22;;;;;;;10.55;8.60;;;;;;;;;;5075209;28;20048;-64
2022/12/02 06:11:48;;;;;;;9.00;7.65;;;;;;;;;;5057392;28;20478;-68
2022/12/02 06:14:23;;;;;;;12.43;9.05;;;;;;;;;;5075266;28;20039;-68
2022/12/02 06:16:54;;;;;;;9.63;8.23;;;;;;;;;;5057366;28;20024;-68
2022/12/02 06:19:19;;;;;;;11.82;8.73;;;;;;;;;;5075196;28;20113;-68
2022/12/02 06:21:44;;;;;;;9.17;7.63;;;;;;;;;;5057219;28;20102;-65
2022/12/02 06:24:11;;;;;;;9.68;7.30;;;;;;;;;;5075755;28;20306;-67
2022/12/02 06:26:36;;;;;;;8.73;7.50;;;;;;;;;;5074947;28;20031;-67
2022/12/02 06:29:03;;;;;;;7.60;6.72;;;;;;;;;;5057013;28;20029;-67
2022/12/02 06:31:32;;;;;;;7.22;6.55;;;;;;;;;;5074607;28;20463;-67
2022/12/02 06:33:59;;;;;;;7.50;6.80;;;;;;;;;;5074550;28;20094;-67
2022/12/02 06:36:26;;;;;;;7.38;6.68;;;;;;;;;;5074604;28;20025;-67
2022/12/02 06:38:56;;;;;;;6.75;6.15;;;;;;;;;;5074520;28;20055;-68
2022/12/02 06:41:27;;;;;;;6.97;6.38;;;;;;;;;;5074727;28;20031;-68
2022/12/02 06:46:40;;;;;;;7.53;6.18;;;;;;;;;;5074744;28;20033;-66
2022/12/02 06:49:24;;;;;;;7.43;5.95;;;;;;;;;;5055629;28;20035;-65
2022/12/02 06:51:57;;;;;;;8.27;7.57;;;;;;;;;;5072671;28;20063;-65
2022/12/02 06:54:24;;;;;;;8.52;7.22;;;;;;;;;;5072471;28;20098;-66
2022/12/02 06:56:50;;;;;;;8.60;7.10;;;;;;;;;;5072659;28;20370;-65
2022/12/02 06:59:26;;;;;;;9.60;7.60;;;;;;;;;;5072121;28;20112;-65
2022/12/02 07:01:53;;;;;;;9.90;8.65;;;;;;;;;;5072258;28;20025;-65
2022/12/02 07:04:28;;;;;;;11.05;8.05;;;;;;;;;;5072257;28;20052;-65
2022/12/02 07:06:55;;;;;;;9.00;8.02;;;;;;;;;;5054598;28;20444;-65
2022/12/02 07:09:36;;;;;;;8.90;7.72;;;;;;;;;;5072339;28;20027;-65
2022/12/02 07:12:02;;;;;;;8.48;7.28;;;;;;;;;;5072067;28;20050;-65
2022/12/02 07:14:46;;;;;;;9.27;7.80;;;;;;;;;;5055505;28;20549;-65
2022/12/02 07:17:21;;;;;;;9.02;7.68;;;;;;;;;;5073315;28;20036;-65
2022/12/02 07:19:48;;;;;;;10.27;8.15;;;;;;;;;;5056265;28;20047;-65
2022/12/02 07:22:15;;;;;;;8.93;7.82;;;;;;;;;;5073997;28;20012;-65
2022/12/02 07:24:41;;;;;;;10.23;8.52;;;;;;;;;;5073896;28;20032;-65
2022/12/02 07:27:24;;;;;;;10.13;8.25;;;;;;;;;;5073958;28;20044;-65
2022/12/02 07:29:49;;;;;;;11.23;8.73;;;;;;;;;;5073562;28;20413;-65
2022/12/02 07:32:15;;;;;;;10.00;8.70;;;;;;;;;;5073802;28;20115;-66
2022/12/02 07:34:40;;;;;;;10.27;8.63;;;;;;;;;;5055707;28;20054;-65
2022/12/02 07:37:05;;;;;;;10.57;8.95;;;;;;;;;;5073433;28;20024;-65
2022/12/02 07:39:31;;;;;;;8.45;7.65;;;;;;;;;;5056865;28;20028;-65
2022/12/02 07:41:56;;;;;;;23.58;9.60;;;;;;;;;;5074858;28;20509;-65
2022/12/02 07:44:22;;;;;;;16.45;10.80;;;;;;;;;;5074638;28;20062;-65
2022/12/02 07:46:47;;;;;;;17.75;14.02;;;;;;;;;;5074570;28;20378;-65
2022/12/02 07:49:12;;;;;;;17.08;15.02;;;;;;;;;;5074467;28;20198;-66
2022/12/02 07:51:37;;;;;;;18.67;15.13;;;;;;;;;;5074259;28;20074;-66
2022/12/02 07:54:03;;;;;;;13.30;12.00;;;;;;;;;;5056511;28;20032;-65
2022/12/02 07:56:28;;;;;;;14.07;12.52;;;;;;;;;;5074729;28;20409;-65
2022/12/02 07:58:54;;;;;;;11.73;10.52;;;;;;;;;;5075047;28;20033;-65
2022/12/02 08:01:19;;;;;;;9.57;8.25;;;;;;;;;;5074476;28;20020;-65
2022/12/02 08:03:45;;;;;;;14.27;10.48;;;;;;;;;;5056505;28;20444;-65
2022/12/02 08:06:10;;;;;;;18.27;11.57;;;;;;;;;;5056337;28;20035;-65
2022/12/02 08:08:35;;;;;;;15.98;12.63;;;;;;;;;;5074178;28;20039;-65
2022/12/02 08:11:01;;;;;;;11.98;10.48;;;;;;;;;;5074178;28;20025;-65
2022/12/02 08:13:26;;;;;;;20.42;15.60;;;;;;;;;;5074024;28;20520;-65
2022/12/02 08:15:51;;;;;;;34.55;24.38;;;;;;;;;;5056331;28;20052;-65
2022/12/02 08:18:17;;;;;;;23.50;18.23;;;;;;;;;;5074028;28;20063;-65
2022/12/02 08:20:42;;;;;;;38.40;25.75;;;;;;;;;;5056094;28;20017;-65
2022/12/02 08:23:07;;;;;;;19.25;15.60;;;;;;;;;;5073956;28;20471;-65
2022/12/02 08:25:33;;;;;;;14.27;12.38;;;;;;;;;;5074535;28;20016;-65
2022/12/02 08:27:58;;;;;;;14.75;11.32;;;;;;;;;;5073764;28;20039;-65
2022/12/02 08:30:23;;;;;;;14.82;12.23;;;;;;;;;;5074191;28;20051;-65
2022/12/02 08:32:49;;;;;;;21.25;14.57;;;;;;;;;;5073754;28;20459;-65
2022/12/02 08:35:14;;;;;;;45.78;27.13;;;;;;;;;;5074385;28;20016;-65
2022/12/02 08:37:40;;;;;;;27.85;16.73;;;;;;;;;;5073566;28;20032;-65
2022/12/02 08:40:06;;;;;;;32.85;20.65;;;;;;;;;;5073786;28;20181;-65
2022/12/02 08:42:31;;;;;;;43.33;25.05;;;;;;;;;;5055768;28;20020;-65
2022/12/02 08:44:56;;;;;;;31.60;26.38;;;;;;;;;;5074010;28;20027;-65
2022/12/02 08:47:22;;;;;;;28.30;22.30;;;;;;;;;;5073703;28;20047;-65
2022/12/02 08:49:47;;;;;;;21.98;16.38;;;;;;;;;;5073975;28;20366;-65
2022/12/02 08:52:12;;;;;;;49.67;26.67;;;;;;;;;;5073643;28;20025;-65
2022/12/02 08:54:39;;;;;;;59.95;30.80;;;;;;;;;;5073539;28;20052;-65
2022/12/02 08:57:05;;;;;;;25.83;14.60;;;;;;;;;;5074156;28;20036;-65
2022/12/02 08:59:30;;;;;;;20.20;13.32;;;;;;;;;;5074164;28;20025;-65
2022/12/02 09:01:56;;;;;;;37.45;21.98;;;;;;;;;;5073527;28;20451;-68
2022/12/02 09:04:21;;;;;;;31.65;19.50;;;;;;;;;;5055487;28;20029;-65
2022/12/02 09:06:46;;;;;;;23.05;15.73;;;;;;;;;;5073803;28;20082;-65
2022/12/02 09:09:12;;;;;;;32.88;21.38;;;;;;;;;;5055603;28;20530;-65
2022/12/02 09:11:37;;;;;;;26.52;16.17;;;;;;;;;;5073743;28;20033;-65
2022/12/02 09:14:02;;;;;;;32.20;20.27;;;;;;;;;;5073624;28;20025;-65
2022/12/02 09:16:28;;;;;;;24.50;18.48;;;;;;;;;;5073648;28;20111;-65
2022/12/02 09:18:54;;;;;;;29.90;20.17;;;;;;;;;;5055441;28;20039;-65
2022/12/02 09:21:20;;;;;;;19.80;12.65;;;;;;;;;;5038764;28;20433;-65
2022/12/02 09:23:45;;;;;;;16.52;12.02;;;;;;;;;;5073332;28;20024;-65
2022/12/02 09:26:11;;;;;;;14.23;11.45;;;;;;;;;;5073342;28;20032;-65
2022/12/02 09:28:36;;;;;;;13.32;11.02;;;;;;;;;;5073546;28;20090;-65
2022/12/02 09:31:01;;;;;;;15.95;12.27;;;;;;;;;;5073824;28;20036;-65
2022/12/02 09:33:28;;;;;;;48.95;35.42;;;;;;;;;;5073459;28;20020;-65
2022/12/02 09:35:53;;;;;;;16.75;13.50;;;;;;;;;;5073496;28;20086;-65
2022/12/02 09:38:18;;;;;;;34.63;25.17;;;;;;;;;;5055907;28;20049;-65
2022/12/02 09:40:44;;;;;;;16.50;13.07;;;;;;;;;;5077081;28;20422;-65
2022/12/02 09:43:09;;;;;;;16.48;13.15;;;;;;;;;;5077569;28;20102;-65
2022/12/02 09:45:35;;;;;;;24.52;18.80;;;;;;;;;;5076980;28;20417;-65
2022/12/02 09:48:01;;;;;;;16.30;14.00;;;;;;;;;;5077226;28;20028;-65
2022/12/02 09:50:26;;;;;;;10.32;8.82;;;;;;;;;;5076842;28;20094;-65
2022/12/02 09:52:53;;;;;;;14.25;11.57;;;;;;;;;;5077066;28;20020;-65
2022/12/02 09:55:19;;;;;;;9.93;8.65;;;;;;;;;;5076754;28;20036;-65
2022/12/02 09:57:44;;;;;;;9.85;8.85;;;;;;;;;;5077034;28;20412;-65
2022/12/02 10:00:18;;;;;;;9.52;8.52;;;;;;;;;;5058868;28;20530;-65
2022/12/02 10:02:48;;;;;;;12.25;9.23;;;;;;;;;;5058577;28;20024;-65
2022/12/02 10:05:15;;;;;;;12.80;10.77;;;;;;;;;;5076923;28;20029;-65
2022/12/02 10:07:41;;;;;;;10.90;8.07;;;;;;;;;;5058641;28;20316;-65
2022/12/02 10:10:09;;;;;;;9.65;7.47;;;;;;;;;;5076792;28;20455;-65
2022/12/02 10:12:34;;;;;;;13.15;11.43;;;;;;;;;;5076541;28;20021;-65
2022/12/02 10:14:59;;;;;;;11.15;9.88;;;;;;;;;;5076974;28;20065;-65
2022/12/02 10:17:25;;;;;;;13.27;10.40;;;;;;;;;;5076361;28;20032;-65
2022/12/02 10:19:51;;;;;;;9.95;7.97;;;;;;;;;;5076656;28;20012;-65
2022/12/02 10:22:17;;;;;;;8.60;7.32;;;;;;;;;;5076274;28;20429;-65
2022/12/02 10:24:43;;;;;;;9.63;8.60;;;;;;;;;;5076273;28;20074;-65
2022/12/02 10:27:21;;;;;;;7.68;6.72;;;;;;;;;;5076309;28;20025;-65
2022/12/02 10:29:46;;;;;;;11.52;8.38;;;;;;;;;;5058152;28;20029;-65
2022/12/02 10:32:20;;;;;;;10.38;9.10;;;;;;;;;;5057035;28;20023;-65
2022/12/02 10:34:59;;;;;;;11.98;9.77;;;;;;;;;;5075689;28;20090;-65
2022/12/02 10:37:24;;;;;;;13.93;10.65;;;;;;;;;;5074736;28;20033;-65
2022/12/02 10:40:09;;;;;;;12.65;10.57;;;;;;;;;;5075530;28;20089;-65
2022/12/02 10:42:35;;;;;;;18.52;16.92;;;;;;;;;;5075829;28;20039;-65
2022/12/02 10:45:12;;;;;;;10.55;9.57;;;;;;;;;;5075616;28;20017;-65
2022/12/02 10:47:38;;;;;;;12.25;10.20;;;;;;;;;;5075496;28;20056;-65
2022/12/02 10:50:08;;;;;;;9.50;8.00;;;;;;;;;;5074770;28;20055;-65
2022/12/02 10:52:37;;;;;;;9.90;8.90;;;;;;;;;;5075368;28;20025;-66
2022/12/02 10:55:03;;;;;;;7.22;6.63;;;;;;;;;;5073623;28;20051;-66
2022/12/02 10:57:30;;;;;;;7.75;6.95;;;;;;;;;;5073943;28;20020;-66
2022/12/02 10:59:57;;;;;;;7.47;6.78;;;;;;;;;;5073714;28;20052;-66
2022/12/02 11:02:34;;;;;;;7.43;6.57;;;;;;;;;;5073656;28;20053;-66
2022/12/02 11:05:09;;;;;;;9.43;7.57;;;;;;;;;;5055912;28;20040;-65
2022/12/02 11:07:34;;;;;;;7.28;6.15;;;;;;;;;;5074492;28;20478;-65
2022/12/02 11:09:59;;;;;;;8.38;7.50;;;;;;;;;;5057512;28;20053;-65
2022/12/02 11:12:33;;;;;;;8.80;7.18;;;;;;;;;;5075625;28;20033;-65
2022/12/02 11:14:59;;;;;;;9.68;7.20;;;;;;;;;;5075544;28;20383;-65
2022/12/02 11:17:56;;;;;;;15.40;12.57;;;;;;;;;;5075305;28;20017;-65
2022/12/02 11:20:33;;;;;;;14.68;11.85;;;;;;;;;;5037580;28;20401;-65
2022/12/02 11:22:59;;;;;;;33.45;20.65;;;;;;;;;;5075393;28;20501;-66
2022/12/02 11:25:42;;;;;;;20.63;12.15;;;;;;;;;;5075379;28;20021;-65
2022/12/02 11:28:14;;;;;;;11.57;7.78;;;;;;;;;;5075017;28;20029;-65
2022/12/02 11:30:39;;;;;;;12.35;7.55;;;;;;;;;;5075254;28;20170;-66
2022/12/02 11:33:08;;;;;;;10.32;7.60;;;;;;;;;;5074899;28;20526;-65
2022/12/02 11:36:03;;;;;;;8.10;7.22;;;;;;;;;;5074905;28;20028;-65
2022/12/02 11:38:28;;;;;;;11.65;10.50;;;;;;;;;;5074856;28;20040;-65
2022/12/02 11:40:54;;;;;;;9.52;7.68;;;;;;;;;;5075334;28;20032;-65
2022/12/02 11:43:41;;;;;;;8.88;7.68;;;;;;;;;;5056790;28;20501;-65
2022/12/02 11:46:06;;;;;;;7.93;7.10;;;;;;;;;;5056862;28;20058;-65
2022/12/02 11:48:31;;;;;;;9.55;8.13;;;;;;;;;;5074884;28;20103;-65
2022/12/02 11:50:57;;;;;;;8.20;7.32;;;;;;;;;;5074814;28;20032;-66
2022/12/02 11:53:23;;;;;;;7.57;6.70;;;;;;;;;;5074739;28;20024;-65
2022/12/02 11:55:52;;;;;;;8.77;7.63;;;;;;;;;;5074732;28;20458;-65
2022/12/02 11:58:24;;;;;;;11.38;7.68;;;;;;;;;;5074722;28;20035;-65
2022/12/02 12:01:06;;;;;;;11.27;9.25;;;;;;;;;;5074359;28;20429;-65
2022/12/02 12:03:32;;;;;;;20.25;13.73;;;;;;;;;;5073649;28;20032;-65
2022/12/02 12:06:03;;;;;;;7.75;6.95;;;;;;;;;;5074298;28;20024;-65
2022/12/02 12:08:29;;;;;;;32.30;21.23;;;;;;;;;;5074225;28;20064;-65
2022/12/02 12:11:14;;;;;;;10.55;7.65;;;;;;;;;;5056944;28;20024;-65
2022/12/02 12:14:15;;;;;;;9.93;8.93;;;;;;;;;;5074336;28;20435;-65
2022/12/02 12:16:42;;;;;;;7.78;6.95;;;;;;;;;;4972313;28;20034;-65
2022/12/02 12:19:10;;;;;;;12.98;11.07;;;;;;;;;;5053299;28;20071;-65
2022/12/02 12:21:46;;;;;;;30.33;24.20;;;;;;;;;;5072843;28;20428;-65
2022/12/02 12:24:15;;;;;;;24.48;21.92;;;;;;;;;;5055409;28;20086;-66
2022/12/02 12:26:54;;;;;;;29.40;25.63;;;;;;;;;;5073068;28;20095;-65
2022/12/02 12:29:20;;;;;;;34.10;29.42;;;;;;;;;;5073325;28;20044;-65
2022/12/02 12:31:46;;;;;;;14.73;11.25;;;;;;;;;;5073687;28;20103;-65
2022/12/02 12:34:11;;;;;;;7.47;6.80;;;;;;;;;;5038971;28;20123;-65
2022/12/02 12:36:37;;;;;;;19.25;14.43;;;;;;;;;;5072884;28;20021;-65
2022/12/02 12:39:04;;;;;;;16.02;11.63;;;;;;;;;;5072598;28;20040;-65
2022/12/02 12:41:29;;;;;;;28.77;21.95;;;;;;;;;;5072298;28;20460;-65
2022/12/02 12:43:55;;;;;;;13.38;10.02;;;;;;;;;;5054375;28;20032;-64
2022/12/02 12:46:20;;;;;;;12.23;8.02;;;;;;;;;;5072637;28;20070;-65
2022/12/02 12:48:45;;;;;;;17.23;13.35;;;;;;;;;;5072623;28;20028;-66
2022/12/02 12:51:11;;;;;;;20.67;14.93;;;;;;;;;;5054757;28;20032;-66
2022/12/02 12:53:36;;;;;;;15.00;11.52;;;;;;;;;;5037912;28;20073;-66
2022/12/02 12:56:01;;;;;;;29.65;20.42;;;;;;;;;;5054459;28;20012;-65
2022/12/02 12:58:27;;;;;;;33.63;22.83;;;;;;;;;;5072770;28;20390;-65
2022/12/02 13:00:52;;;;;;;18.10;14.05;;;;;;;;;;5072669;28;20108;-65
2022/12/02 13:03:18;;;;;;;18.95;13.68;;;;;;;;;;5054550;28;20040;-65
2022/12/02 13:05:44;;;;;;;16.70;12.70;;;;;;;;;;5072347;28;20021;-65
2022/12/02 13:08:09;;;;;;;18.05;13.38;;;;;;;;;;5071558;28;20108;-65
2022/12/02 13:10:34;;;;;;;26.63;15.70;;;;;;;;;;5071789;28;20470;-65
2022/12/02 13:13:00;;;;;;;15.40;11.30;;;;;;;;;;5072245;28;20035;-65
2022/12/02 13:15:25;;;;;;;16.83;10.88;;;;;;;;;;5076198;28;20051;-65
2022/12/02 13:17:51;;;;;;;22.70;17.13;;;;;;;;;;5076749;28;20021;-65
2022/12/02 13:20:16;;;;;;;23.10;14.95;;;;;;;;;;5057886;28;20020;-65
2022/12/02 13:22:42;;;;;;;29.92;15.02;;;;;;;;;;5076106;28;20029;-65
2022/12/02 13:25:08;;;;;;;43.00;24.10;;;;;;;;;;5076775;28;20020;-65
2022/12/02 13:27:33;;;;;;;22.58;14.88;;;;;;;;;;5059284;28;20027;-65
2022/12/02 13:29:58;;;;;;;238.63;95.32;;;;;;;;;;5076954;28;20344;-65
2022/12/02 13:32:24;;;;;;;59.38;38.42;;;;;;;;;;5076269;28;20025;-65
2022/12/02 13:34:49;;;;;;;14.35;10.68;;;;;;;;;;5075784;28;20027;-65
2022/12/02 13:37:15;;;;;;;21.63;14.02;;;;;;;;;;5075930;28;20494;-65
2022/12/02 13:39:40;;;;;;;63.50;42.33;;;;;;;;;;5076078;28;20048;-65
2022/12/02 13:42:06;;;;;;;38.75;26.42;;;;;;;;;;5075956;28;20035;-65
2022/12/02 13:44:31;;;;;;;36.70;27.23;;;;;;;;;;5057987;28;20364;-65
2022/12/02 13:46:56;;;;;;;24.15;17.85;;;;;;;;;;5057796;28;20044;-65
2022/12/02 13:49:22;;;;;;;27.73;20.80;;;;;;;;;;5057578;28;20020;-65
2022/12/02 13:51:48;;;;;;;16.63;13.48;;;;;;;;;;5075727;28;20517;-65
2022/12/02 13:54:13;;;;;;;16.02;13.43;;;;;;;;;;5075665;28;20035;-65
2022/12/02 13:56:39;;;;;;;14.13;11.52;;;;;;;;;;5075707;28;20471;-65
2022/12/02 13:59:04;;;;;;;34.33;26.90;;;;;;;;;;5074883;28;20055;-68
2022/12/02 14:01:29;;;;;;;22.73;14.52;;;;;;;;;;5075148;28;20029;-65
2022/12/02 14:03:55;;;;;;;27.55;17.45;;;;;;;;;;5075437;28;20521;-65
2022/12/02 14:06:20;;;;;;;13.45;10.57;;;;;;;;;;5075361;28;20037;-65
2022/12/02 14:08:45;;;;;;;18.90;11.18;;;;;;;;;;5057537;28;20028;-65
2022/12/02 14:11:11;;;;;;;16.55;14.15;;;;;;;;;;5075238;28;20053;-65
2022/12/02 14:13:36;;;;;;;24.10;16.52;;;;;;;;;;5074824;28;20462;-65
2022/12/02 14:16:01;;;;;;;20.77;15.02;;;;;;;;;;5075215;28;20104;-65
2022/12/02 14:18:27;;;;;;;15.05;11.95;;;;;;;;;;5057279;28;20027;-65
2022/12/02 14:20:52;;;;;;;14.73;11.13;;;;;;;;;;5075313;28;20470;-65
2022/12/02 14:23:17;;;;;;;13.88;10.77;;;;;;;;;;5075704;28;20036;-65
2022/12/02 14:25:43;;;;;;;15.65;10.80;;;;;;;;;;5073722;28;20036;-65
2022/12/02 14:28:08;;;;;;;71.22;44.17;;;;;;;;;;5074778;28;20027;-69
2022/12/02 14:30:34;;;;;;;29.17;19.92;;;;;;;;;;5075250;28;20406;-66